Time;durP1;ratioP1;P1;durP2;ratioP2;P2;SDS_P1;SDS_P2;PMS_P1;PMS_P2;Temp;Humidity;BMP_temperature;BMP_pressure;BME280_temperature;BME280_humidity;BME280_pressure;Samples;Min_cycle;Max_cycle;Signal;HPM_P1;HPM_P2
2021/03/13 00:00:08;;;;;;;15.20;8.90;;;;;;;;;;5093453;28;20066;-16
2021/03/13 00:02:37;;;;;;;18.08;9.18;;;;;;;;;;5093612;28;20119;-16
2021/03/13 00:05:02;;;;;;;16.80;10.85;;;;;;;;;;5093545;28;20055;-16
2021/03/13 00:07:28;;;;;;;18.55;10.25;;;;;;;;;;5093560;28;20064;-16
2021/03/13 00:09:53;;;;;;;17.52;9.82;;;;;;;;;;5093388;28;20103;-16
2021/03/13 00:12:19;;;;;;;15.90;9.40;;;;;;;;;;5093254;28;20028;-16
2021/03/13 00:14:44;;;;;;;16.65;10.18;;;;;;;;;;5093718;28;20023;-15
2021/03/13 00:17:10;;;;;;;13.25;8.88;;;;;;;;;;5091953;28;20489;-16
2021/03/13 00:19:35;;;;;;;15.32;8.07;;;;;;;;;;5093475;28;20044;-16
2021/03/13 00:22:01;;;;;;;16.13;8.80;;;;;;;;;;5092917;28;20059;-16
2021/03/13 00:24:26;;;;;;;14.98;9.77;;;;;;;;;;5093476;28;20025;-16
2021/03/13 00:26:52;;;;;;;15.05;7.65;;;;;;;;;;5093071;28;20055;-16
2021/03/13 00:29:17;;;;;;;18.88;9.52;;;;;;;;;;5092995;28;20023;-16
2021/03/13 00:31:42;;;;;;;16.35;8.27;;;;;;;;;;5093081;28;20119;-16
2021/03/13 00:34:07;;;;;;;15.60;10.07;;;;;;;;;;5092985;28;20030;-16
2021/03/13 00:36:33;;;;;;;14.13;7.70;;;;;;;;;;5093111;28;20027;-16
2021/03/13 00:38:58;;;;;;;13.48;8.80;;;;;;;;;;5092785;28;20473;-16
2021/03/13 00:41:24;;;;;;;16.95;8.88;;;;;;;;;;5093186;28;20036;-16
2021/03/13 00:43:49;;;;;;;13.80;8.38;;;;;;;;;;5092804;28;20020;-16
2021/03/13 00:46:14;;;;;;;14.02;7.88;;;;;;;;;;5092795;28;20043;-16
2021/03/13 00:48:40;;;;;;;12.90;7.72;;;;;;;;;;5092402;28;20024;-18
2021/03/13 00:51:05;;;;;;;12.93;7.13;;;;;;;;;;5092500;28;20032;-16
2021/03/13 00:53:31;;;;;;;11.73;6.53;;;;;;;;;;5093018;28;20015;-17
2021/03/13 00:55:56;;;;;;;13.00;7.32;;;;;;;;;;5091346;28;20085;-16
2021/03/13 00:58:27;;;;;;;13.70;7.93;;;;;;;;;;5091274;28;20020;-16
2021/03/13 01:00:57;;;;;;;10.57;6.53;;;;;;;;;;5092525;28;20124;-16
2021/03/13 01:03:27;;;;;;;10.57;7.28;;;;;;;;;;5092474;28;20490;-16
2021/03/13 01:05:52;;;;;;;14.00;7.25;;;;;;;;;;5092394;28;20024;-16
2021/03/13 01:08:20;;;;;;;13.15;7.28;;;;;;;;;;5091138;28;20072;-16
2021/03/13 01:10:46;;;;;;;11.52;7.57;;;;;;;;;;5091123;28;20136;-16
2021/03/13 01:13:14;;;;;;;13.90;7.78;;;;;;;;;;5090999;28;20462;-16
2021/03/13 01:15:40;;;;;;;14.10;7.85;;;;;;;;;;5091005;28;20217;-15
2021/03/13 01:18:05;;;;;;;11.32;6.70;;;;;;;;;;5092672;28;20036;-17
2021/03/13 01:20:33;;;;;;;13.45;7.03;;;;;;;;;;5090953;28;20527;-16
2021/03/13 01:22:59;;;;;;;13.25;7.65;;;;;;;;;;5074139;28;20102;-16
2021/03/13 01:25:24;;;;;;;10.20;6.93;;;;;;;;;;5092337;28;20483;-16
2021/03/13 01:27:50;;;;;;;13.25;6.32;;;;;;;;;;5092243;28;20101;-16
2021/03/13 01:30:17;;;;;;;18.58;7.15;;;;;;;;;;5074176;28;20073;-16
2021/03/13 01:32:42;;;;;;;11.93;6.45;;;;;;;;;;5092405;28;20024;-16
2021/03/13 01:35:08;;;;;;;12.27;7.90;;;;;;;;;;5090887;28;20558;-16
2021/03/13 01:37:34;;;;;;;11.02;6.22;;;;;;;;;;5090887;28;20387;-16
2021/03/13 01:39:59;;;;;;;9.75;6.00;;;;;;;;;;5090727;28;20035;-16
2021/03/13 01:42:26;;;;;;;11.75;6.93;;;;;;;;;;5092244;28;20020;-16
2021/03/13 01:44:58;;;;;;;10.60;7.60;;;;;;;;;;5090774;28;20054;-16
2021/03/13 01:47:27;;;;;;;10.25;6.45;;;;;;;;;;5090692;28;20036;-16
2021/03/13 01:49:57;;;;;;;10.80;6.82;;;;;;;;;;5090673;28;20455;-16
2021/03/13 01:52:28;;;;;;;14.60;6.68;;;;;;;;;;5090865;28;20382;-18
2021/03/13 01:54:55;;;;;;;12.32;7.65;;;;;;;;;;5090808;28;20035;-17
2021/03/13 01:57:21;;;;;;;10.80;6.40;;;;;;;;;;5091994;28;20016;-16
2021/03/13 01:59:50;;;;;;;10.68;6.28;;;;;;;;;;5092790;28;20577;-15
2021/03/13 02:02:16;;;;;;;10.93;7.32;;;;;;;;;;5095899;28;20173;-15
2021/03/13 02:04:41;;;;;;;11.38;7.80;;;;;;;;;;5094616;28;20035;-16
2021/03/13 02:07:15;;;;;;;14.70;8.57;;;;;;;;;;5095749;28;20024;-16
2021/03/13 02:10:00;;;;;;;16.73;8.35;;;;;;;;;;5094403;28;20032;-16
2021/03/13 02:12:28;;;;;;;14.32;8.38;;;;;;;;;;5094287;28;20550;-16
2021/03/13 02:15:00;;;;;;;11.32;7.45;;;;;;;;;;5094433;28;20020;-16
2021/03/13 02:17:42;;;;;;;12.48;8.13;;;;;;;;;;5094233;28;20039;-15
2021/03/13 02:20:14;;;;;;;13.38;7.10;;;;;;;;;;5095714;28;20028;-16
2021/03/13 02:22:42;;;;;;;12.02;8.13;;;;;;;;;;5077462;28;20055;-16
2021/03/13 02:25:29;;;;;;;12.63;8.13;;;;;;;;;;5095824;28;20598;-15
2021/03/13 02:28:05;;;;;;;10.32;7.10;;;;;;;;;;5094100;28;20200;-15
2021/03/13 02:30:32;;;;;;;11.77;7.43;;;;;;;;;;5093980;28;20032;-15
2021/03/13 02:33:02;;;;;;;10.50;5.85;;;;;;;;;;5094240;28;20028;-16
2021/03/13 02:35:43;;;;;;;8.05;5.78;;;;;;;;;;5093994;28;20510;-16
2021/03/13 02:38:13;;;;;;;12.90;6.38;;;;;;;;;;5095393;28;20036;-16
2021/03/13 02:40:40;;;;;;;10.50;6.63;;;;;;;;;;5095453;28;20039;-16
2021/03/13 02:43:07;;;;;;;9.70;6.25;;;;;;;;;;5093768;28;20044;-16
2021/03/13 02:45:35;;;;;;;10.90;5.72;;;;;;;;;;5093731;28;20031;-16
2021/03/13 02:48:04;;;;;;;10.80;6.82;;;;;;;;;;5093542;28;20097;-16
2021/03/13 02:50:30;;;;;;;11.25;5.15;;;;;;;;;;5093639;28;20077;-16
2021/03/13 02:53:02;;;;;;;9.07;5.72;;;;;;;;;;5093502;28;20027;-16
2021/03/13 02:55:28;;;;;;;10.77;5.72;;;;;;;;;;5093619;28;20111;-16
2021/03/13 02:57:56;;;;;;;7.35;5.00;;;;;;;;;;5093557;28;20490;-17
2021/03/13 03:00:22;;;;;;;10.30;4.65;;;;;;;;;;5093294;28;20075;-16
2021/03/13 03:02:55;;;;;;;8.13;5.18;;;;;;;;;;5093493;28;20020;-17
2021/03/13 03:05:23;;;;;;;9.32;5.72;;;;;;;;;;5094900;28;20035;-16
2021/03/13 03:07:51;;;;;;;7.13;5.32;;;;;;;;;;5093234;28;20089;-16
2021/03/13 03:10:18;;;;;;;8.18;4.25;;;;;;;;;;5092951;28;20024;-16
2021/03/13 03:12:46;;;;;;;10.77;4.88;;;;;;;;;;5093226;28;20020;-17
2021/03/13 03:15:12;;;;;;;9.07;5.47;;;;;;;;;;5093217;28;20052;-17
2021/03/13 03:17:38;;;;;;;7.90;5.32;;;;;;;;;;5127365;27;20016;-17
2021/03/13 03:20:07;;;;;;;9.55;6.03;;;;;;;;;;5092942;28;20486;-16
2021/03/13 03:22:34;;;;;;;7.45;4.20;;;;;;;;;;5094167;28;20052;-16
2021/03/13 03:25:08;;;;;;;7.43;4.82;;;;;;;;;;5092970;28;20020;-16
2021/03/13 03:27:34;;;;;;;6.28;4.03;;;;;;;;;;5092826;28;20036;-15
2021/03/13 03:30:00;;;;;;;6.72;4.72;;;;;;;;;;5094205;28;20020;-16
2021/03/13 03:32:29;;;;;;;8.35;4.60;;;;;;;;;;5092889;28;20056;-16
2021/03/13 03:34:55;;;;;;;6.82;4.85;;;;;;;;;;5092755;28;20017;-17
2021/03/13 03:37:22;;;;;;;7.75;4.45;;;;;;;;;;5092622;28;20027;-17
2021/03/13 03:39:48;;;;;;;6.30;4.07;;;;;;;;;;5094008;28;20026;-17
2021/03/13 03:42:18;;;;;;;6.68;4.43;;;;;;;;;;5092655;28;20115;-17
2021/03/13 03:44:46;;;;;;;5.15;4.15;;;;;;;;;;5092700;28;20024;-16
2021/03/13 03:47:17;;;;;;;6.03;4.72;;;;;;;;;;5092440;28;20093;-17
2021/03/13 03:49:45;;;;;;;4.90;3.72;;;;;;;;;;5092361;28;20024;-17
2021/03/13 03:52:24;;;;;;;7.20;4.25;;;;;;;;;;5092521;28;20174;-18
2021/03/13 03:54:50;;;;;;;6.35;4.57;;;;;;;;;;5092485;28;20508;-17
2021/03/13 03:57:17;;;;;;;6.20;4.28;;;;;;;;;;5093606;28;20027;-17
2021/03/13 03:59:43;;;;;;;6.57;4.03;;;;;;;;;;5093603;28;20038;-17
2021/03/13 04:02:09;;;;;;;5.30;4.03;;;;;;;;;;5093531;28;20020;-17
2021/03/13 04:04:34;;;;;;;5.40;3.97;;;;;;;;;;5093559;28;20036;-17
2021/03/13 04:07:00;;;;;;;5.43;3.70;;;;;;;;;;5093453;28;20032;-17
2021/03/13 04:09:26;;;;;;;6.25;4.38;;;;;;;;;;5093639;28;20024;-17
2021/03/13 04:11:53;;;;;;;6.40;4.68;;;;;;;;;;5093437;28;20107;-17
2021/03/13 04:14:18;;;;;;;5.85;4.47;;;;;;;;;;5093621;28;20366;-17
2021/03/13 04:16:44;;;;;;;7.13;3.22;;;;;;;;;;5092049;28;20020;-17
2021/03/13 04:19:10;;;;;;;5.55;3.83;;;;;;;;;;5093213;28;20429;-17
2021/03/13 04:21:36;;;;;;;7.68;4.53;;;;;;;;;;5092677;28;20044;-17
2021/03/13 04:24:02;;;;;;;7.28;4.60;;;;;;;;;;5075047;28;20377;-17
2021/03/13 04:26:29;;;;;;;4.50;3.72;;;;;;;;;;5093145;28;20126;-17
2021/03/13 04:28:55;;;;;;;5.93;3.55;;;;;;;;;;5093088;28;20031;-17
2021/03/13 04:31:24;;;;;;;5.55;3.75;;;;;;;;;;5093278;28;20027;-16
2021/03/13 04:33:49;;;;;;;8.35;3.67;;;;;;;;;;5093034;28;20024;-17
2021/03/13 04:36:15;;;;;;;6.18;3.67;;;;;;;;;;5092819;28;20023;-17
2021/03/13 04:38:40;;;;;;;4.40;3.03;;;;;;;;;;5093176;28;20116;-18
2021/03/13 04:41:07;;;;;;;7.03;3.60;;;;;;;;;;5092888;28;20012;-17
2021/03/13 04:43:32;;;;;;;3.83;3.05;;;;;;;;;;5093154;28;20056;-17
2021/03/13 04:45:59;;;;;;;6.45;3.40;;;;;;;;;;5093031;28;20480;-16
2021/03/13 04:48:28;;;;;;;3.55;3.22;;;;;;;;;;5093019;28;20058;-17
2021/03/13 04:50:57;;;;;;;4.80;2.95;;;;;;;;;;5092851;28;20034;-16
2021/03/13 04:53:22;;;;;;;7.30;4.20;;;;;;;;;;5092610;28;20032;-17
2021/03/13 04:55:48;;;;;;;4.18;3.25;;;;;;;;;;5092954;28;20159;-17
2021/03/13 04:58:13;;;;;;;5.65;3.60;;;;;;;;;;5092518;28;20494;-17
2021/03/13 05:00:38;;;;;;;5.45;3.22;;;;;;;;;;5092816;28;20023;-17
2021/03/13 05:03:04;;;;;;;5.82;3.58;;;;;;;;;;5091276;28;20153;-17
2021/03/13 05:05:32;;;;;;;7.00;3.65;;;;;;;;;;5091264;28;20431;-16
2021/03/13 05:07:58;;;;;;;5.13;3.58;;;;;;;;;;5092435;28;20394;-16
2021/03/13 05:10:23;;;;;;;5.60;3.80;;;;;;;;;;5092407;28;20020;-17
2021/03/13 05:12:49;;;;;;;5.47;3.53;;;;;;;;;;5092501;28;20081;-17
2021/03/13 05:15:14;;;;;;;5.32;3.30;;;;;;;;;;5092599;28;20014;-17
2021/03/13 05:17:40;;;;;;;3.53;2.20;;;;;;;;;;5092395;28;20024;-17
2021/03/13 05:20:05;;;;;;;4.57;2.90;;;;;;;;;;5090983;28;20016;-16
2021/03/13 05:22:31;;;;;;;4.07;3.05;;;;;;;;;;5125036;28;20052;-15
2021/03/13 05:24:56;;;;;;;3.50;2.85;;;;;;;;;;5092646;28;20471;-17
2021/03/13 05:27:21;;;;;;;7.38;3.78;;;;;;;;;;5090917;28;20067;-15
2021/03/13 05:29:47;;;;;;;4.07;3.67;;;;;;;;;;5092525;28;20039;-16
2021/03/13 05:32:12;;;;;;;6.30;2.92;;;;;;;;;;5092271;28;20387;-16
2021/03/13 05:34:37;;;;;;;5.07;3.17;;;;;;;;;;5094271;28;20054;-15
2021/03/13 05:37:03;;;;;;;3.53;2.97;;;;;;;;;;5095129;28;20059;-15
2021/03/13 05:39:28;;;;;;;5.90;3.30;;;;;;;;;;5096378;28;20023;-18
2021/03/13 05:41:54;;;;;;;5.25;3.50;;;;;;;;;;5096208;28;20136;-16
2021/03/13 05:44:19;;;;;;;3.67;2.95;;;;;;;;;;5096524;28;20016;-15
2021/03/13 05:46:45;;;;;;;3.75;2.70;;;;;;;;;;5096509;28;20040;-16
2021/03/13 05:49:11;;;;;;;6.15;3.10;;;;;;;;;;5095985;28;20060;-15
2021/03/13 05:51:42;;;;;;;5.72;2.90;;;;;;;;;;5096174;28;20036;-16
2021/03/13 05:54:08;;;;;;;22.38;12.00;;;;;;;;;;5095960;28;20119;-16
2021/03/13 05:56:33;;;;;;;15.13;7.68;;;;;;;;;;5096301;28;20103;-16
2021/03/13 05:58:59;;;;;;;16.55;9.45;;;;;;;;;;5096329;28;20086;-16
2021/03/13 06:01:26;;;;;;;11.70;5.90;;;;;;;;;;5096199;28;20016;-16
2021/03/13 06:03:52;;;;;;;9.95;5.43;;;;;;;;;;5096163;28;20378;-16
2021/03/13 06:06:17;;;;;;;6.85;5.20;;;;;;;;;;5095652;28;20016;-16
2021/03/13 06:08:44;;;;;;;7.95;3.97;;;;;;;;;;5095754;28;20066;-16
2021/03/13 06:11:09;;;;;;;6.30;3.13;;;;;;;;;;5095763;28;20012;-16
2021/03/13 06:13:35;;;;;;;6.30;3.70;;;;;;;;;;5095643;28;20086;-16
2021/03/13 06:16:00;;;;;;;7.63;4.75;;;;;;;;;;5095801;28;20026;-16
2021/03/13 06:18:46;;;;;;;6.93;4.22;;;;;;;;;;5095471;28;20039;-16
2021/03/13 06:21:21;;;;;;;5.22;3.78;;;;;;;;;;5095282;28;20036;-17
2021/03/13 06:23:46;;;;;;;3.85;3.40;;;;;;;;;;5095542;28;20040;-16
2021/03/13 06:26:11;;;;;;;5.13;3.10;;;;;;;;;;5095601;28;20027;-16
2021/03/13 06:28:37;;;;;;;3.90;3.00;;;;;;;;;;5094077;28;20126;-15
2021/03/13 06:31:07;;;;;;;4.25;3.45;;;;;;;;;;5094108;28;20020;-15
2021/03/13 06:33:33;;;;;;;5.50;3.50;;;;;;;;;;5094018;28;20028;-15
2021/03/13 06:36:03;;;;;;;3.83;3.10;;;;;;;;;;5095458;28;20023;-15
2021/03/13 06:38:29;;;;;;;5.65;3.63;;;;;;;;;;5095201;28;20055;-16
2021/03/13 06:40:55;;;;;;;3.80;3.03;;;;;;;;;;5095251;28;20015;-16
2021/03/13 06:43:21;;;;;;;3.50;2.97;;;;;;;;;;5077066;28;20046;-15
2021/03/13 06:45:56;;;;;;;5.20;3.47;;;;;;;;;;5093253;28;20016;-15
2021/03/13 06:48:40;;;;;;;4.22;3.28;;;;;;;;;;5094939;28;20036;-15
2021/03/13 06:51:26;;;;;;;4.20;3.30;;;;;;;;;;5093672;28;20025;-15
2021/03/13 06:53:58;;;;;;;4.28;2.63;;;;;;;;;;5076894;28;20058;-15
2021/03/13 06:56:25;;;;;;;4.28;2.92;;;;;;;;;;5093508;28;20074;-15
2021/03/13 06:58:50;;;;;;;6.75;2.95;;;;;;;;;;5095140;28;20012;-16
2021/03/13 07:01:15;;;;;;;4.53;2.90;;;;;;;;;;5093687;28;20043;-15
2021/03/13 07:03:48;;;;;;;6.03;2.78;;;;;;;;;;5095129;28;20025;-15
2021/03/13 07:06:17;;;;;;;3.85;2.60;;;;;;;;;;5094480;28;20490;-15
2021/03/13 07:08:43;;;;;;;6.35;3.10;;;;;;;;;;5094641;28;20020;-16
2021/03/13 07:11:08;;;;;;;3.55;2.85;;;;;;;;;;5094682;28;20161;-16
2021/03/13 07:13:43;;;;;;;3.67;2.80;;;;;;;;;;5094563;28;20102;-14
2021/03/13 07:16:22;;;;;;;7.43;3.05;;;;;;;;;;5093142;28;20078;-15
2021/03/13 07:18:48;;;;;;;2.90;2.30;;;;;;;;;;4731966;28;9999721;-16
2021/03/13 07:21:14;;;;;;;4.78;2.70;;;;;;;;;;5069578;28;20013;-17
2021/03/13 07:23:44;;;;;;;3.92;2.72;;;;;;;;;;5070800;28;20426;-17
2021/03/13 07:26:10;;;;;;;3.28;2.38;;;;;;;;;;5070054;28;20024;-16
2021/03/13 07:28:40;;;;;;;5.30;2.47;;;;;;;;;;5070465;28;20028;-16
2021/03/13 07:31:08;;;;;;;4.00;2.72;;;;;;;;;;5070028;28;20033;-17
2021/03/13 07:33:35;;;;;;;3.58;2.38;;;;;;;;;;5069908;28;20025;-19
2021/03/13 07:36:00;;;;;;;4.75;2.78;;;;;;;;;;5069171;28;20036;-17
2021/03/13 07:38:27;;;;;;;4.70;2.47;;;;;;;;;;5070714;28;20020;-17
2021/03/13 07:40:53;;;;;;;3.75;2.30;;;;;;;;;;5070443;28;20108;-17
2021/03/13 07:43:19;;;;;;;6.00;2.63;;;;;;;;;;5069569;28;20021;-16
2021/03/13 07:45:48;;;;;;;6.50;3.55;;;;;;;;;;5070643;28;20039;-15
2021/03/13 07:48:14;;;;;;;4.35;2.85;;;;;;;;;;5070234;28;20041;-15
2021/03/13 07:50:41;;;;;;;4.60;3.00;;;;;;;;;;5069884;28;20029;-15
2021/03/13 07:53:07;;;;;;;4.68;3.08;;;;;;;;;;5069829;28;20025;-16
2021/03/13 07:55:32;;;;;;;3.42;2.70;;;;;;;;;;5069504;28;20478;-16
2021/03/13 07:57:58;;;;;;;3.85;2.20;;;;;;;;;;5068940;28;20059;-15
2021/03/13 08:00:40;;;;;;;5.82;3.17;;;;;;;;;;5069340;28;20025;-15
2021/03/13 08:03:25;;;;;;;4.47;2.83;;;;;;;;;;5059210;28;20035;-15
2021/03/13 08:05:54;;;;;;;8.77;2.15;;;;;;;;;;5069795;28;20102;-16
2021/03/13 08:08:32;;;;;;;4.75;2.83;;;;;;;;;;5069388;28;20033;-15
2021/03/13 08:10:58;;;;;;;2.33;1.80;;;;;;;;;;5067996;28;20025;-16
2021/03/13 08:13:43;;;;;;;3.03;1.98;;;;;;;;;;5069936;28;20032;-15
2021/03/13 08:16:09;;;;;;;3.65;2.30;;;;;;;;;;5058750;28;20071;-16
2021/03/13 08:18:42;;;;;;;4.15;2.55;;;;;;;;;;5073143;28;20089;-15
2021/03/13 08:21:20;;;;;;;14.38;5.65;;;;;;;;;;5089593;28;20077;-16
2021/03/13 08:23:58;;;;;;;5.13;3.00;;;;;;;;;;5069456;28;20123;-16
2021/03/13 08:26:44;;;;;;;3.95;2.10;;;;;;;;;;5067756;28;20028;-16
2021/03/13 08:29:11;;;;;;;5.40;2.90;;;;;;;;;;5061823;28;20423;-15
2021/03/13 08:31:37;;;;;;;4.35;2.30;;;;;;;;;;5067166;28;20542;-16
2021/03/13 08:34:02;;;;;;;5.10;2.30;;;;;;;;;;5069634;28;20036;-16
2021/03/13 08:36:29;;;;;;;3.30;1.92;;;;;;;;;;5069469;28;20379;-15
2021/03/13 08:38:54;;;;;;;2.95;1.83;;;;;;;;;;5069321;28;20074;-16
2021/03/13 08:41:39;;;;;;;3.53;1.65;;;;;;;;;;5068917;28;20028;-15
2021/03/13 08:44:04;;;;;;;3.70;2.65;;;;;;;;;;5068705;28;20407;-16
2021/03/13 08:46:39;;;;;;;2.50;1.95;;;;;;;;;;5069224;28;20024;-16
2021/03/13 08:49:04;;;;;;;3.08;2.10;;;;;;;;;;5069024;28;20040;-16
2021/03/13 08:51:30;;;;;;;2.30;2.00;;;;;;;;;;5069600;28;20021;-16
2021/03/13 08:53:55;;;;;;;4.25;1.83;;;;;;;;;;5068873;28;20089;-16
2021/03/13 08:56:37;;;;;;;2.03;1.63;;;;;;;;;;5068845;28;20032;-16
2021/03/13 08:59:09;;;;;;;3.45;2.45;;;;;;;;;;5068781;28;20032;-17
2021/03/13 09:01:35;;;;;;;3.08;2.38;;;;;;;;;;5068834;28;20127;-16
2021/03/13 09:04:00;;;;;;;2.67;1.85;;;;;;;;;;5067853;28;20099;-16
2021/03/13 09:06:26;;;;;;;4.63;2.30;;;;;;;;;;5067522;28;20037;-16
2021/03/13 09:08:51;;;;;;;2.58;1.80;;;;;;;;;;5068389;28;20028;-16
2021/03/13 09:11:27;;;;;;;8.02;2.78;;;;;;;;;;5068721;28;20095;-16
2021/03/13 09:14:02;;;;;;;2.97;1.92;;;;;;;;;;5068260;28;20044;-16
2021/03/13 09:16:32;;;;;;;2.67;1.85;;;;;;;;;;5068528;28;20024;-16
2021/03/13 09:18:58;;;;;;;1.83;1.35;;;;;;;;;;5077071;28;20060;-16
2021/03/13 09:21:37;;;;;;;2.92;2.17;;;;;;;;;;5089123;28;20072;-16
2021/03/13 09:24:03;;;;;;;3.15;1.83;;;;;;;;;;5089270;28;20031;-15
2021/03/13 09:26:28;;;;;;;2.22;2.03;;;;;;;;;;5073876;28;20109;-16
2021/03/13 09:28:53;;;;;;;2.78;2.10;;;;;;;;;;5069053;28;20029;-16
2021/03/13 09:31:19;;;;;;;2.83;1.60;;;;;;;;;;5068186;28;20042;-16
2021/03/13 09:33:44;;;;;;;2.42;1.63;;;;;;;;;;5068871;28;20087;-16
2021/03/13 09:36:10;;;;;;;2.30;1.58;;;;;;;;;;5068670;28;20024;-16
2021/03/13 09:38:36;;;;;;;18.23;10.52;;;;;;;;;;5068450;28;20081;-17
2021/03/13 09:41:01;;;;;;;6.53;3.85;;;;;;;;;;5068850;28;20025;-16
2021/03/13 09:43:26;;;;;;;10.68;8.63;;;;;;;;;;5068166;28;20913;-16
2021/03/13 09:45:52;;;;;;;40.45;28.58;;;;;;;;;;5068202;28;20045;-16
2021/03/13 09:48:17;;;;;;;3.95;1.75;;;;;;;;;;5068460;28;20054;-15
2021/03/13 09:50:43;;;;;;;3.08;2.33;;;;;;;;;;5068644;28;20024;-16
2021/03/13 09:53:10;;;;;;;5.07;4.10;;;;;;;;;;5068412;28;20097;-16
2021/03/13 09:55:37;;;;;;;3.10;1.98;;;;;;;;;;5068260;28;20017;-16
2021/03/13 09:58:03;;;;;;;3.63;2.13;;;;;;;;;;5068452;28;20434;-16
2021/03/13 10:00:32;;;;;;;8.45;3.47;;;;;;;;;;5068517;28;20024;-15
2021/03/13 10:02:59;;;;;;;2.03;1.58;;;;;;;;;;5068722;28;20037;-16
2021/03/13 10:05:31;;;;;;;2.42;1.67;;;;;;;;;;5066640;28;20161;-16
2021/03/13 10:08:03;;;;;;;2.70;2.00;;;;;;;;;;5067789;28;20047;-16
2021/03/13 10:10:29;;;;;;;2.20;1.48;;;;;;;;;;5068324;28;20028;-16
2021/03/13 10:12:58;;;;;;;2.67;1.70;;;;;;;;;;5068631;28;20020;-16
2021/03/13 10:15:29;;;;;;;2.15;1.83;;;;;;;;;;5068215;28;20051;-16
2021/03/13 10:17:55;;;;;;;3.33;1.73;;;;;;;;;;5068230;28;20111;-15
2021/03/13 10:20:22;;;;;;;3.13;1.98;;;;;;;;;;5089553;28;20035;-16
2021/03/13 10:22:47;;;;;;;3.92;1.95;;;;;;;;;;5092207;28;20119;-16
2021/03/13 10:25:13;;;;;;;4.03;1.77;;;;;;;;;;5092096;28;20546;-17
2021/03/13 10:27:38;;;;;;;2.63;1.80;;;;;;;;;;5091671;28;20123;-15
2021/03/13 10:30:05;;;;;;;3.03;1.58;;;;;;;;;;5091558;28;20045;-17
2021/03/13 10:32:31;;;;;;;2.67;1.65;;;;;;;;;;5092276;28;20184;-16
2021/03/13 10:35:09;;;;;;;2.70;1.85;;;;;;;;;;5091873;28;20027;-16
2021/03/13 10:37:40;;;;;;;3.55;2.40;;;;;;;;;;5090308;28;20039;-17
2021/03/13 10:40:06;;;;;;;3.22;2.10;;;;;;;;;;5091670;28;20028;-16
2021/03/13 10:42:34;;;;;;;2.13;1.60;;;;;;;;;;5091626;28;20107;-16
2021/03/13 10:45:12;;;;;;;2.08;1.25;;;;;;;;;;5090462;28;20028;-17
2021/03/13 10:47:38;;;;;;;3.78;2.42;;;;;;;;;;5091644;28;20044;-16
2021/03/13 10:50:03;;;;;;;5.72;1.83;;;;;;;;;;5091178;28;20375;-16
2021/03/13 10:52:29;;;;;;;2.00;1.38;;;;;;;;;;5092023;28;20123;-16
2021/03/13 10:54:56;;;;;;;3.03;1.55;;;;;;;;;;5091488;28;20697;-17
2021/03/13 10:57:21;;;;;;;1.55;1.13;;;;;;;;;;5091530;28;20119;-16
2021/03/13 10:59:47;;;;;;;2.28;1.42;;;;;;;;;;5072598;28;20108;-17
2021/03/13 11:02:12;;;;;;;1.70;1.50;;;;;;;;;;5070769;28;20089;-16
2021/03/13 11:04:38;;;;;;;2.70;1.67;;;;;;;;;;5071021;28;20031;-16
2021/03/13 11:07:05;;;;;;;4.20;1.60;;;;;;;;;;5070447;28;20036;-17
2021/03/13 11:09:30;;;;;;;2.38;1.40;;;;;;;;;;5071414;28;20017;-17
2021/03/13 11:11:56;;;;;;;3.30;1.65;;;;;;;;;;5071459;28;20032;-17
2021/03/13 11:14:22;;;;;;;2.53;1.67;;;;;;;;;;5070853;28;20017;-17
2021/03/13 11:16:47;;;;;;;4.28;2.03;;;;;;;;;;5070985;28;20028;-17
2021/03/13 11:19:14;;;;;;;7.25;1.92;;;;;;;;;;5080821;28;20044;-17
2021/03/13 11:21:40;;;;;;;3.30;1.70;;;;;;;;;;5089909;28;20518;-17
2021/03/13 11:24:05;;;;;;;2.97;1.90;;;;;;;;;;5090567;28;20072;-17
2021/03/13 11:26:31;;;;;;;14.50;9.27;;;;;;;;;;5090579;28;20032;-17
2021/03/13 11:28:56;;;;;;;3.42;1.25;;;;;;;;;;5091255;28;20048;-17
2021/03/13 11:31:22;;;;;;;4.57;1.58;;;;;;;;;;5090429;28;20039;-17
2021/03/13 11:33:47;;;;;;;1.88;1.40;;;;;;;;;;5091064;28;20026;-17
2021/03/13 11:36:13;;;;;;;1.58;1.08;;;;;;;;;;5091131;28;20036;-17
2021/03/13 11:38:38;;;;;;;1.45;1.20;;;;;;;;;;5091151;28;20019;-17
2021/03/13 11:41:05;;;;;;;7.03;1.65;;;;;;;;;;5090576;28;20390;-16
2021/03/13 11:43:30;;;;;;;2.17;1.98;;;;;;;;;;5090236;28;20020;-17
2021/03/13 11:45:56;;;;;;;3.25;2.28;;;;;;;;;;5090727;28;20064;-16
2021/03/13 11:48:22;;;;;;;6.35;1.67;;;;;;;;;;5090027;28;20032;-17
2021/03/13 11:50:48;;;;;;;2.22;1.65;;;;;;;;;;5090884;28;20031;-17
2021/03/13 11:53:13;;;;;;;2.78;1.90;;;;;;;;;;5090629;28;20028;-16
2021/03/13 11:55:39;;;;;;;2.55;1.40;;;;;;;;;;5090131;28;20674;-17
2021/03/13 11:58:04;;;;;;;4.38;2.65;;;;;;;;;;5090432;28;20028;-16
2021/03/13 12:00:30;;;;;;;8.43;2.17;;;;;;;;;;5090556;28;20036;-16
2021/03/13 12:02:55;;;;;;;2.88;1.67;;;;;;;;;;5089863;28;20080;-16
2021/03/13 12:05:21;;;;;;;4.57;3.22;;;;;;;;;;5090219;28;20039;-16
2021/03/13 12:07:46;;;;;;;3.95;2.33;;;;;;;;;;5089655;28;20316;-16
2021/03/13 12:10:12;;;;;;;4.93;2.17;;;;;;;;;;5089908;28;20703;-16
2021/03/13 12:12:38;;;;;;;3.47;1.70;;;;;;;;;;5090393;28;20055;-15
2021/03/13 12:15:07;;;;;;;2.83;1.92;;;;;;;;;;5090264;28;20035;-16
2021/03/13 12:17:33;;;;;;;4.65;2.22;;;;;;;;;;5089809;28;20423;-16
2021/03/13 12:19:59;;;;;;;6.13;2.97;;;;;;;;;;5072903;28;20035;-16
2021/03/13 12:22:26;;;;;;;4.18;1.88;;;;;;;;;;5068195;28;20056;-16
2021/03/13 12:24:51;;;;;;;5.40;2.45;;;;;;;;;;5068664;28;20144;-16
2021/03/13 12:27:17;;;;;;;4.70;2.58;;;;;;;;;;5069345;28;20562;-16
2021/03/13 12:29:43;;;;;;;6.90;3.28;;;;;;;;;;5067766;28;20102;-16
2021/03/13 12:32:08;;;;;;;7.72;3.10;;;;;;;;;;5069180;28;20040;-16
2021/03/13 12:34:34;;;;;;;6.18;1.98;;;;;;;;;;5069539;28;20506;-17
2021/03/13 12:36:59;;;;;;;2.45;1.25;;;;;;;;;;5069649;28;20031;-16
2021/03/13 12:39:24;;;;;;;3.88;1.90;;;;;;;;;;5069338;28;20032;-16
2021/03/13 12:41:50;;;;;;;9.82;4.13;;;;;;;;;;5069338;28;20028;-16
2021/03/13 12:44:15;;;;;;;3.78;2.15;;;;;;;;;;5069030;28;20048;-16
2021/03/13 12:46:41;;;;;;;7.07;3.30;;;;;;;;;;5069331;28;20059;-16
2021/03/13 12:49:07;;;;;;;4.00;2.47;;;;;;;;;;5069087;28;20476;-16
2021/03/13 12:51:32;;;;;;;7.40;3.08;;;;;;;;;;5069123;28;20047;-16
2021/03/13 12:53:59;;;;;;;7.75;2.85;;;;;;;;;;5069295;28;20090;-16
2021/03/13 12:56:24;;;;;;;7.53;2.55;;;;;;;;;;5069013;28;20025;-16
2021/03/13 12:58:50;;;;;;;4.65;1.92;;;;;;;;;;5068949;28;20035;-16
2021/03/13 13:01:15;;;;;;;6.13;2.20;;;;;;;;;;5069291;28;20073;-15
2021/03/13 13:03:40;;;;;;;6.50;3.67;;;;;;;;;;5069008;28;20396;-16
2021/03/13 13:06:06;;;;;;;7.50;3.25;;;;;;;;;;5069029;28;20020;-16
2021/03/13 13:08:32;;;;;;;7.22;3.40;;;;;;;;;;5069080;28;20075;-15
2021/03/13 13:10:57;;;;;;;0.95;0.57;;;;;;;;;;5067819;28;20020;-16
2021/03/13 13:13:23;;;;;;;6.18;2.75;;;;;;;;;;5068834;28;20181;-16
2021/03/13 13:15:52;;;;;;;6.30;2.97;;;;;;;;;;5068777;28;20016;-16
2021/03/13 13:18:19;;;;;;;1.98;1.17;;;;;;;;;;5071366;28;20032;-17
2021/03/13 13:20:44;;;;;;;14.63;5.68;;;;;;;;;;5089134;28;20024;-17
2021/03/13 13:23:10;;;;;;;3.58;1.67;;;;;;;;;;5088825;28;20754;-16
2021/03/13 13:25:35;;;;;;;5.13;3.05;;;;;;;;;;5088943;28;20156;-16
2021/03/13 13:28:01;;;;;;;7.35;4.85;;;;;;;;;;5088988;28;20497;-16
2021/03/13 13:30:27;;;;;;;7.15;3.67;;;;;;;;;;5078993;28;20024;-17
2021/03/13 13:32:52;;;;;;;8.55;4.68;;;;;;;;;;5068669;28;20028;-16
2021/03/13 13:35:17;;;;;;;11.20;5.40;;;;;;;;;;5068787;28;20139;-16
2021/03/13 13:37:43;;;;;;;8.20;3.90;;;;;;;;;;5068708;28;20063;-17
2021/03/13 13:40:09;;;;;;;4.43;2.17;;;;;;;;;;5068595;28;20353;-17
2021/03/13 13:42:35;;;;;;;6.40;3.65;;;;;;;;;;5068146;28;20040;-17
2021/03/13 13:45:01;;;;;;;9.30;5.55;;;;;;;;;;5068165;28;20033;-17
2021/03/13 13:47:26;;;;;;;6.45;3.28;;;;;;;;;;5068245;28;20044;-17
2021/03/13 13:49:51;;;;;;;13.48;4.45;;;;;;;;;;5068806;28;20020;-16
2021/03/13 13:52:17;;;;;;;9.80;5.07;;;;;;;;;;5069282;28;20380;-17
2021/03/13 13:54:42;;;;;;;0.47;0.45;;;;;;;;;;5068843;28;20116;-17
2021/03/13 13:57:08;;;;;;;6.00;3.08;;;;;;;;;;5072543;28;20072;-17
2021/03/13 13:59:33;;;;;;;4.60;3.05;;;;;;;;;;5072461;28;20029;-17
2021/03/13 14:02:00;;;;;;;6.10;3.08;;;;;;;;;;5072084;28;20123;-17
2021/03/13 14:04:25;;;;;;;6.00;3.67;;;;;;;;;;5072542;28;20025;-17
2021/03/13 14:06:51;;;;;;;8.60;3.97;;;;;;;;;;5071472;28;20528;-17
2021/03/13 14:09:16;;;;;;;7.25;4.45;;;;;;;;;;5071748;28;20102;-17
2021/03/13 14:11:42;;;;;;;1.55;1.08;;;;;;;;;;5072127;28;20032;-17
2021/03/13 14:14:07;;;;;;;5.10;2.38;;;;;;;;;;5072069;28;20064;-16
2021/03/13 14:16:32;;;;;;;6.97;4.30;;;;;;;;;;5072218;28;20036;-16
2021/03/13 14:18:58;;;;;;;5.22;3.08;;;;;;;;;;5078696;28;20028;-16
2021/03/13 14:21:23;;;;;;;8.38;3.92;;;;;;;;;;5075972;28;20394;-17
2021/03/13 14:23:48;;;;;;;5.82;2.67;;;;;;;;;;5071954;28;20032;-16
2021/03/13 14:26:14;;;;;;;6.38;2.97;;;;;;;;;;5071872;28;20039;-17
2021/03/13 14:28:40;;;;;;;7.88;2.90;;;;;;;;;;5071736;28;20705;-17
2021/03/13 14:31:06;;;;;;;2.53;0.85;;;;;;;;;;5071588;28;20047;-17
2021/03/13 14:33:31;;;;;;;5.55;3.90;;;;;;;;;;5071876;28;20024;-16
2021/03/13 14:35:58;;;;;;;6.88;3.70;;;;;;;;;;5071844;28;20090;-17
2021/03/13 14:38:23;;;;;;;10.07;4.75;;;;;;;;;;5072123;28;20037;-17
2021/03/13 14:40:50;;;;;;;9.52;4.82;;;;;;;;;;5072160;28;20055;-16